Tenmile, Oregon
Current Conditions -  °F | °C
As of 3:53 AM on Saturday 20 Dec 2014 (Local Time) from KRBG Reporting Station
Light Rain Light Rain  
Wind Chill: 47°   Ceiling: 5000
Heat Index: 49°   Visibility: 10mi
Dew Point: 45°   Wind: 6mph
Humidity: 86%   Direction: 170°S
Pressure: 29.9"   Gusts: NA
Location:  43.1°N, 123.57°W
Report Text: KRBG 201153Z AUTO 17005KT 10SM -RA FEW045 OVC050 09/07 A2990 RMK AO2 SLP126 P0007 60042 70058 T00940072 10094 20089 58012 $
Loading
Personal Weather Stations






























Interactive Weather Map New forecast layout! Learn more

10-Day Weather Forecast

Advertisements
Track Severe Weather on mobile